sensor_id;sensor_type;location;lat;lon;timestamp;pressure;altitude;pressure_sealevel;temperature
80680;BMP280;70043;51.982;-8.514;2023-11-19T00:00:52;98072.97;;;12.50
80680;BMP280;70043;51.982;-8.514;2023-11-19T00:03:18;98089.34;;;12.49
80680;BMP280;70043;51.982;-8.514;2023-11-19T00:05:46;98102.38;;;12.47
80680;BMP280;70043;51.982;-8.514;2023-11-19T00:08:16;98104.72;;;12.49
80680;BMP280;70043;51.982;-8.514;2023-11-19T00:10:43;98088.81;;;12.52
80680;BMP280;70043;51.982;-8.514;2023-11-19T00:13:11;98102.84;;;12.44
80680;BMP280;70043;51.982;-8.514;2023-11-19T00:15:38;98103.34;;;12.41
80680;BMP280;70043;51.982;-8.514;2023-11-19T00:18:05;98106.66;;;12.37
80680;BMP280;70043;51.982;-8.514;2023-11-19T00:20:32;98104.09;;;12.37
80680;BMP280;70043;51.982;-8.514;2023-11-19T00:22:59;98112.78;;;12.41
80680;BMP280;70043;51.982;-8.514;2023-11-19T00:25:29;98106.66;;;12.42
80680;BMP280;70043;51.982;-8.514;2023-11-19T00:27:56;98093.88;;;12.42
80680;BMP280;70043;51.982;-8.514;2023-11-19T00:30:23;98110.22;;;12.41
80680;BMP280;70043;51.982;-8.514;2023-11-19T00:32:50;98101.56;;;12.42
80680;BMP280;70043;51.982;-8.514;2023-11-19T00:35:17;98107.16;;;12.39
80680;BMP280;70043;51.982;-8.514;2023-11-19T00:37:44;98094.09;;;12.35
80680;BMP280;70043;51.982;-8.514;2023-11-19T00:40:13;98096.41;;;12.37
80680;BMP280;70043;51.982;-8.514;2023-11-19T00:42:42;98099.50;;;12.39
80680;BMP280;70043;51.982;-8.514;2023-11-19T00:45:09;98091.31;;;12.42
80680;BMP280;70043;51.982;-8.514;2023-11-19T00:47:38;98094.88;;;12.41
80680;BMP280;70043;51.982;-8.514;2023-11-19T00:50:06;98092.81;;;12.38
80680;BMP280;70043;51.982;-8.514;2023-11-19T00:52:34;98090.53;;;12.36
80680;BMP280;70043;51.982;-8.514;2023-11-19T00:55:02;98095.38;;;12.38
80680;BMP280;70043;51.982;-8.514;2023-11-19T00:57:30;98078.50;;;12.37
80680;BMP280;70043;51.982;-8.514;2023-11-19T00:59:59;98094.09;;;12.35
80680;BMP280;70043;51.982;-8.514;2023-11-19T01:02:26;98075.41;;;12.35
80680;BMP280;70043;51.982;-8.514;2023-11-19T01:04:53;98082.06;;;12.36
80680;BMP280;70043;51.982;-8.514;2023-11-19T01:07:21;98087.69;;;12.38
80680;BMP280;70043;51.982;-8.514;2023-11-19T01:09:49;98078.97;;;12.34
80680;BMP280;70043;51.982;-8.514;2023-11-19T01:12:16;98070.81;;;12.37
80680;BMP280;70043;51.982;-8.514;2023-11-19T01:14:43;98082.06;;;12.36
80680;BMP280;70043;51.982;-8.514;2023-11-19T01:17:11;98079.03;;;12.39
80680;BMP280;70043;51.982;-8.514;2023-11-19T01:19:38;98071.84;;;12.41
80680;BMP280;70043;51.982;-8.514;2023-11-19T01:22:05;98076.97;;;12.41
80680;BMP280;70043;51.982;-8.514;2023-11-19T01:24:32;98075.19;;;12.41
80680;BMP280;70043;51.982;-8.514;2023-11-19T01:26:59;98071.34;;;12.39
80680;BMP280;70043;51.982;-8.514;2023-11-19T01:29:26;98064.44;;;12.39
80680;BMP280;70043;51.982;-8.514;2023-11-19T01:31:53;98071.84;;;12.41
80680;BMP280;70043;51.982;-8.514;2023-11-19T01:34:21;98066.75;;;12.41
80680;BMP280;70043;51.982;-8.514;2023-11-19T01:36:48;98073.41;;;12.42
80680;BMP280;70043;51.982;-8.514;2023-11-19T01:39:15;98070.34;;;12.45
80680;BMP280;70043;51.982;-8.514;2023-11-19T01:41:42;98072.69;;;12.46
80680;BMP280;70043;51.982;-8.514;2023-11-19T01:44:09;98073.41;;;12.42
80680;BMP280;70043;51.982;-8.514;2023-11-19T01:46:38;98064.22;;;12.46
80680;BMP280;70043;51.982;-8.514;2023-11-19T01:49:07;98058.84;;;12.42
80680;BMP280;70043;51.982;-8.514;2023-11-19T01:51:35;98052.16;;;12.41
80680;BMP280;70043;51.982;-8.514;2023-11-19T01:54:03;98055.50;;;12.42
80680;BMP280;70043;51.982;-8.514;2023-11-19T01:56:30;98050.16;;;12.43
80680;BMP280;70043;51.982;-8.514;2023-11-19T01:58:59;98039.13;;;12.43
80680;BMP280;70043;51.982;-8.514;2023-11-19T02:01:27;98038.38;;;12.42
80680;BMP280;70043;51.982;-8.514;2023-11-19T02:03:55;98044.50;;;12.41
80680;BMP280;70043;51.982;-8.514;2023-11-19T02:06:24;98031.69;;;12.41
80680;BMP280;70043;51.982;-8.514;2023-11-19T02:08:53;98027.88;;;12.44
80680;BMP280;70043;51.982;-8.514;2023-11-19T02:11:20;98034.78;;;12.43
80680;BMP280;70043;51.982;-8.514;2023-11-19T02:13:47;98024.06;;;12.46
80680;BMP280;70043;51.982;-8.514;2023-11-19T02:16:14;98035.25;;;12.40
80680;BMP280;70043;51.982;-8.514;2023-11-19T02:18:41;98028.91;;;12.43
80680;BMP280;70043;51.982;-8.514;2023-11-19T02:21:08;98038.38;;;12.42
80680;BMP280;70043;51.982;-8.514;2023-11-19T02:23:36;98038.09;;;12.39
80680;BMP280;70043;51.982;-8.514;2023-11-19T02:26:12;98040.63;;;12.39
80680;BMP280;70043;51.982;-8.514;2023-11-19T02:28:42;98036.53;;;12.38
80680;BMP280;70043;51.982;-8.514;2023-11-19T02:31:09;98042.69;;;12.42
80680;BMP280;70043;51.982;-8.514;2023-11-19T02:33:37;98037.31;;;12.38
80680;BMP280;70043;51.982;-8.514;2023-11-19T02:36:04;98040.16;;;12.42
80680;BMP280;70043;51.982;-8.514;2023-11-19T02:38:32;98033.47;;;12.41
80680;BMP280;70043;51.982;-8.514;2023-11-19T02:41:01;98033.25;;;12.42
80680;BMP280;70043;51.982;-8.514;2023-11-19T02:43:30;98026.34;;;12.43
80680;BMP280;70043;51.982;-8.514;2023-11-19T02:46:00;98020.16;;;12.39
80680;BMP280;70043;51.982;-8.514;2023-11-19T02:48:27;98013.28;;;12.39
80680;BMP280;70043;51.982;-8.514;2023-11-19T02:50:54;98016.06;;;12.38
80680;BMP280;70043;51.982;-8.514;2023-11-19T02:53:23;98000.97;;;12.36
80680;BMP280;70043;51.982;-8.514;2023-11-19T02:55:53;98023.47;;;12.34
80680;BMP280;70043;51.982;-8.514;2023-11-19T02:58:26;98018.34;;;12.34
80680;BMP280;70043;51.982;-8.514;2023-11-19T03:00:54;98019.09;;;12.30
80680;BMP280;70043;51.982;-8.514;2023-11-19T03:03:24;98021.66;;;12.30
80680;BMP280;70043;51.982;-8.514;2023-11-19T03:05:56;98005.78;;;12.33
80680;BMP280;70043;51.982;-8.514;2023-11-19T03:08:23;98026.03;;;12.34
80680;BMP280;70043;51.982;-8.514;2023-11-19T03:10:50;98009.91;;;12.34
80680;BMP280;70043;51.982;-8.514;2023-11-19T03:13:17;98005.56;;;12.34
80680;BMP280;70043;51.982;-8.514;2023-11-19T03:15:44;98002.25;;;12.39
80680;BMP280;70043;51.982;-8.514;2023-11-19T03:18:11;97997.91;;;12.39
80680;BMP280;70043;51.982;-8.514;2023-11-19T03:20:39;97992.53;;;12.36
80680;BMP280;70043;51.982;-8.514;2023-11-19T03:23:06;97984.31;;;12.34
80680;BMP280;70043;51.982;-8.514;2023-11-19T03:25:33;97990.97;;;12.35
80680;BMP280;70043;51.982;-8.514;2023-11-19T03:28:02;98004.03;;;12.38
80680;BMP280;70043;51.982;-8.514;2023-11-19T03:30:29;98004.50;;;12.30
80680;BMP280;70043;51.982;-8.514;2023-11-19T03:32:57;97995.78;;;12.31
80680;BMP280;70043;51.982;-8.514;2023-11-19T03:35:25;97993.00;;;12.33
80680;BMP280;70043;51.982;-8.514;2023-11-19T03:37:54;97993.53;;;12.35
80680;BMP280;70043;51.982;-8.514;2023-11-19T03:40:21;97984.06;;;12.35
80680;BMP280;70043;51.982;-8.514;2023-11-19T03:42:49;97986.84;;;12.29
80680;BMP280;70043;51.982;-8.514;2023-11-19T03:45:16;97984.81;;;12.31
80680;BMP280;70043;51.982;-8.514;2023-11-19T03:47:43;97987.41;;;12.36
80680;BMP280;70043;51.982;-8.514;2023-11-19T03:50:10;97968.72;;;12.35
80680;BMP280;70043;51.982;-8.514;2023-11-19T03:52:37;97976.88;;;12.32
80680;BMP280;70043;51.982;-8.514;2023-11-19T03:55:06;97975.63;;;12.30
80680;BMP280;70043;51.982;-8.514;2023-11-19T03:57:34;97963.84;;;12.29
80680;BMP280;70043;51.982;-8.514;2023-11-19T04:00:01;97972.53;;;12.33
80680;BMP280;70043;51.982;-8.514;2023-11-19T04:02:33;97973.53;;;12.32
80680;BMP280;70043;51.982;-8.514;2023-11-19T04:05:00;97967.41;;;12.33
80680;BMP280;70043;51.982;-8.514;2023-11-19T04:07:27;97972.06;;;12.36
80680;BMP280;70043;51.982;-8.514;2023-11-19T04:09:54;97954.16;;;12.36
80680;BMP280;70043;51.982;-8.514;2023-11-19T04:12:22;97966.16;;;12.35
80680;BMP280;70043;51.982;-8.514;2023-11-19T04:14:49;97957.22;;;12.38
80680;BMP280;70043;51.982;-8.514;2023-11-19T04:17:16;97951.09;;;12.39
80680;BMP280;70043;51.982;-8.514;2023-11-19T04:19:42;97951.59;;;12.36
80680;BMP280;70043;51.982;-8.514;2023-11-19T04:22:09;97947.25;;;12.36
80680;BMP280;70043;51.982;-8.514;2023-11-19T04:24:36;97944.16;;;12.34
80680;BMP280;70043;51.982;-8.514;2023-11-19T04:27:04;97947.50;;;12.35
80680;BMP280;70043;51.982;-8.514;2023-11-19T04:29:33;97937.25;;;12.35
80680;BMP280;70043;51.982;-8.514;2023-11-19T04:35:10;97942.13;;;12.36
80680;BMP280;70043;51.982;-8.514;2023-11-19T04:37:37;97929.56;;;12.35
80680;BMP280;70043;51.982;-8.514;2023-11-19T04:40:05;97936.75;;;12.38
80680;BMP280;70043;51.982;-8.514;2023-11-19T04:42:32;97937.00;;;12.36
80680;BMP280;70043;51.982;-8.514;2023-11-19T04:45:00;97937.78;;;12.37
80680;BMP280;70043;51.982;-8.514;2023-11-19T04:47:27;97940.34;;;12.37
80680;BMP280;70043;51.982;-8.514;2023-11-19T04:49:54;97945.19;;;12.38
80680;BMP280;70043;51.982;-8.514;2023-11-19T04:52:21;97931.91;;;12.36
80680;BMP280;70043;51.982;-8.514;2023-11-19T04:54:48;97942.13;;;12.36
80680;BMP280;70043;51.982;-8.514;2023-11-19T04:57:15;97925.00;;;12.37
80680;BMP280;70043;51.982;-8.514;2023-11-19T04:59:42;97932.91;;;12.40
80680;BMP280;70043;51.982;-8.514;2023-11-19T05:02:10;97939.59;;;12.41
80680;BMP280;70043;51.982;-8.514;2023-11-19T05:04:42;97941.91;;;12.43
80680;BMP280;70043;51.982;-8.514;2023-11-19T05:07:09;97944.47;;;12.43
80680;BMP280;70043;51.982;-8.514;2023-11-19T05:09:36;97943.94;;;12.41
80680;BMP280;70043;51.982;-8.514;2023-11-19T05:12:03;97936.50;;;12.39
80680;BMP280;70043;51.982;-8.514;2023-11-19T05:14:30;97947.03;;;12.43
80680;BMP280;70043;51.982;-8.514;2023-11-19T05:16:57;97941.91;;;12.43
80680;BMP280;70043;51.982;-8.514;2023-11-19T05:19:25;97942.91;;;12.42
80680;BMP280;70043;51.982;-8.514;2023-11-19T05:21:52;97941.91;;;12.43
80680;BMP280;70043;51.982;-8.514;2023-11-19T05:24:19;97938.31;;;12.44
80680;BMP280;70043;51.982;-8.514;2023-11-19T05:26:45;97937.31;;;12.45
80680;BMP280;70043;51.982;-8.514;2023-11-19T05:29:13;97933.72;;;12.46
80680;BMP280;70043;51.982;-8.514;2023-11-19T05:31:40;97934.75;;;12.45
80680;BMP280;70043;51.982;-8.514;2023-11-19T05:34:06;97938.56;;;12.42
80680;BMP280;70043;51.982;-8.514;2023-11-19T05:36:35;97929.88;;;12.43
80680;BMP280;70043;51.982;-8.514;2023-11-19T05:39:02;97940.63;;;12.45
80680;BMP280;70043;51.982;-8.514;2023-11-19T05:41:30;97935.50;;;12.45
80680;BMP280;70043;51.982;-8.514;2023-11-19T05:43:57;97932.72;;;12.47
80680;BMP280;70043;51.982;-8.514;2023-11-19T05:46:24;97937.06;;;12.46
80680;BMP280;70043;51.982;-8.514;2023-11-19T05:48:51;97924.81;;;12.48
80680;BMP280;70043;51.982;-8.514;2023-11-19T05:51:18;97915.81;;;12.46
80680;BMP280;70043;51.982;-8.514;2023-11-19T05:53:46;97920.94;;;12.46
80680;BMP280;70043;51.982;-8.514;2023-11-19T05:56:13;97928.38;;;12.47
80680;BMP280;70043;51.982;-8.514;2023-11-19T05:58:41;97931.44;;;12.49
80680;BMP280;70043;51.982;-8.514;2023-11-19T06:01:10;97937.06;;;12.46
80680;BMP280;70043;51.982;-8.514;2023-11-19T06:03:36;97945.28;;;12.48
80680;BMP280;70043;51.982;-8.514;2023-11-19T06:06:04;97946.06;;;12.49
80680;BMP280;70043;51.982;-8.514;2023-11-19T06:08:30;97950.63;;;12.52
80680;BMP280;70043;51.982;-8.514;2023-11-19T06:10:59;97943.97;;;12.51
80680;BMP280;70043;51.982;-8.514;2023-11-19T06:13:26;97947.06;;;12.53
80680;BMP280;70043;51.982;-8.514;2023-11-19T06:15:54;97945.00;;;12.50
80680;BMP280;70043;51.982;-8.514;2023-11-19T06:18:20;97952.19;;;12.53
80680;BMP280;70043;51.982;-8.514;2023-11-19T06:20:48;97943.97;;;12.51
80680;BMP280;70043;51.982;-8.514;2023-11-19T06:23:16;97945.53;;;12.52
80680;BMP280;70043;51.982;-8.514;2023-11-19T06:25:43;97949.63;;;12.53
80680;BMP280;70043;51.982;-8.514;2023-11-19T06:28:11;97950.41;;;12.53
80680;BMP280;70043;51.982;-8.514;2023-11-19T06:30:38;97960.41;;;12.55
80680;BMP280;70043;51.982;-8.514;2023-11-19T06:33:06;97956.84;;;12.56
80680;BMP280;70043;51.982;-8.514;2023-11-19T06:35:33;97956.84;;;12.56
80680;BMP280;70043;51.982;-8.514;2023-11-19T06:38:02;97960.41;;;12.55
80680;BMP280;70043;51.982;-8.514;2023-11-19T06:40:29;97962.72;;;12.56
80680;BMP280;70043;51.982;-8.514;2023-11-19T06:42:56;97968.63;;;12.57
80680;BMP280;70043;51.982;-8.514;2023-11-19T06:45:25;97967.31;;;12.59
80680;BMP280;70043;51.982;-8.514;2023-11-19T06:47:51;97977.84;;;12.63
80680;BMP280;70043;51.982;-8.514;2023-11-19T06:50:18;97981.41;;;12.62
80680;BMP280;70043;51.982;-8.514;2023-11-19T06:52:45;97985.78;;;12.61
80680;BMP280;70043;51.982;-8.514;2023-11-19T06:55:12;97985.00;;;12.61
80680;BMP280;70043;51.982;-8.514;2023-11-19T06:57:39;97989.63;;;12.64
80680;BMP280;70043;51.982;-8.514;2023-11-19T07:00:07;97982.97;;;12.63
80680;BMP280;70043;51.982;-8.514;2023-11-19T07:02:36;97979.41;;;12.64
80680;BMP280;70043;51.982;-8.514;2023-11-19T07:05:03;97993.72;;;12.65
80680;BMP280;70043;51.982;-8.514;2023-11-19T07:07:30;97996.28;;;12.65
80680;BMP280;70043;51.982;-8.514;2023-11-19T07:09:58;97991.94;;;12.66
80680;BMP280;70043;51.982;-8.514;2023-11-19T07:12:25;97992.72;;;12.66
80680;BMP280;70043;51.982;-8.514;2023-11-19T07:14:52;98000.16;;;12.68
80680;BMP280;70043;51.982;-8.514;2023-11-19T07:17:20;98004.22;;;12.69
80680;BMP280;70043;51.982;-8.514;2023-11-19T07:19:49;98001.66;;;12.69
80680;BMP280;70043;51.982;-8.514;2023-11-19T07:22:17;98003.47;;;12.68
80680;BMP280;70043;51.982;-8.514;2023-11-19T07:24:44;98011.13;;;12.68
80680;BMP280;70043;51.982;-8.514;2023-11-19T07:27:10;98014.47;;;12.69
80680;BMP280;70043;51.982;-8.514;2023-11-19T07:29:38;98026.03;;;12.71
80680;BMP280;70043;51.982;-8.514;2023-11-19T07:32:05;98027.53;;;12.72
80680;BMP280;70043;51.982;-8.514;2023-11-19T07:34:34;98024.97;;;12.72
80680;BMP280;70043;51.982;-8.514;2023-11-19T07:37:02;98027.53;;;12.72
80680;BMP280;70043;51.982;-8.514;2023-11-19T07:39:30;98025.53;;;12.74
80680;BMP280;70043;51.982;-8.514;2023-11-19T07:41:56;98031.41;;;12.75
80680;BMP280;70043;51.982;-8.514;2023-11-19T07:44:23;98045.22;;;12.74
80680;BMP280;70043;51.982;-8.514;2023-11-19T07:46:50;98046.00;;;12.74
80680;BMP280;70043;51.982;-8.514;2023-11-19T07:49:17;98051.91;;;12.75
80680;BMP280;70043;51.982;-8.514;2023-11-19T07:51:44;98060.34;;;12.75
80680;BMP280;70043;51.982;-8.514;2023-11-19T07:54:12;98062.13;;;12.75
80680;BMP280;70043;51.982;-8.514;2023-11-19T07:56:39;98071.38;;;12.76
80680;BMP280;70043;51.982;-8.514;2023-11-19T07:59:06;98072.91;;;12.77
80680;BMP280;70043;51.982;-8.514;2023-11-19T08:01:33;98077.75;;;12.78
80680;BMP280;70043;51.982;-8.514;2023-11-19T08:04:00;98089.53;;;12.79
80680;BMP280;70043;51.982;-8.514;2023-11-19T08:06:27;98096.44;;;12.79
80680;BMP280;70043;51.982;-8.514;2023-11-19T08:08:54;98104.66;;;12.81
80680;BMP280;70043;51.982;-8.514;2023-11-19T08:11:22;98105.91;;;12.78
80680;BMP280;70043;51.982;-8.514;2023-11-19T08:13:49;98105.16;;;12.78
80680;BMP280;70043;51.982;-8.514;2023-11-19T08:16:16;98115.13;;;12.74
80680;BMP280;70043;51.982;-8.514;2023-11-19T08:18:43;98119.25;;;12.75
80680;BMP280;70043;51.982;-8.514;2023-11-19T08:21:10;98130.00;;;12.77
80680;BMP280;70043;51.982;-8.514;2023-11-19T08:23:37;98128.94;;;12.78
80680;BMP280;70043;51.982;-8.514;2023-11-19T08:26:04;98126.69;;;12.77
80680;BMP280;70043;51.982;-8.514;2023-11-19T08:28:33;98139.97;;;12.79
80680;BMP280;70043;51.982;-8.514;2023-11-19T08:31:00;98150.47;;;12.77
80680;BMP280;70043;51.982;-8.514;2023-11-19T08:33:27;98155.09;;;12.75
80680;BMP280;70043;51.982;-8.514;2023-11-19T08:35:54;98159.19;;;12.76
80680;BMP280;70043;51.982;-8.514;2023-11-19T08:38:21;98172.22;;;12.75
80680;BMP280;70043;51.982;-8.514;2023-11-19T08:40:49;98169.44;;;12.76
80680;BMP280;70043;51.982;-8.514;2023-11-19T08:43:16;98177.56;;;12.73
80680;BMP280;70043;51.982;-8.514;2023-11-19T08:45:44;98176.03;;;12.72
80680;BMP280;70043;51.982;-8.514;2023-11-19T08:48:11;98184.47;;;12.73
80680;BMP280;70043;51.982;-8.514;2023-11-19T08:50:38;98199.31;;;12.71
80680;BMP280;70043;51.982;-8.514;2023-11-19T08:53:05;98192.41;;;12.71
80680;BMP280;70043;51.982;-8.514;2023-11-19T08:55:32;98191.38;;;12.72
80680;BMP280;70043;51.982;-8.514;2023-11-19T08:57:59;98192.72;;;12.75
80680;BMP280;70043;51.982;-8.514;2023-11-19T09:00:26;98186.25;;;12.72
80680;BMP280;70043;51.982;-8.514;2023-11-19T09:02:55;98202.41;;;12.73
80680;BMP280;70043;51.982;-8.514;2023-11-19T09:05:23;98196.50;;;12.72
80680;BMP280;70043;51.982;-8.514;2023-11-19T09:07:50;98201.16;;;12.75
80680;BMP280;70043;51.982;-8.514;2023-11-19T09:10:18;98210.09;;;12.73
80680;BMP280;70043;51.982;-8.514;2023-11-19T09:12:45;98212.13;;;12.71
80680;BMP280;70043;51.982;-8.514;2023-11-19T09:15:12;98208.31;;;12.73
80680;BMP280;70043;51.982;-8.514;2023-11-19T09:17:39;98213.41;;;12.73
80680;BMP280;70043;51.982;-8.514;2023-11-19T09:20:09;98220.88;;;12.75
80680;BMP280;70043;51.982;-8.514;2023-11-19T09:22:40;98222.88;;;12.73
80680;BMP280;70043;51.982;-8.514;2023-11-19T09:25:08;98226.44;;;12.72
80680;BMP280;70043;51.982;-8.514;2023-11-19T09:27:34;98235.41;;;12.69
80680;BMP280;70043;51.982;-8.514;2023-11-19T09:30:02;98242.59;;;12.72
80680;BMP280;70043;51.982;-8.514;2023-11-19T09:32:29;98246.47;;;12.75
80680;BMP280;70043;51.982;-8.514;2023-11-19T09:34:56;98259.53;;;12.78
80680;BMP280;70043;51.982;-8.514;2023-11-19T09:37:25;98267.22;;;12.78
80680;BMP280;70043;51.982;-8.514;2023-11-19T09:39:53;98284.13;;;12.79
80680;BMP280;70043;51.982;-8.514;2023-11-19T09:42:20;98284.69;;;12.81
80680;BMP280;70043;51.982;-8.514;2023-11-19T09:44:47;98297.47;;;12.81
80680;BMP280;70043;51.982;-8.514;2023-11-19T09:47:14;98302.31;;;12.78
80680;BMP280;70043;51.982;-8.514;2023-11-19T09:49:43;98312.81;;;12.76
80680;BMP280;70043;51.982;-8.514;2023-11-19T09:52:11;98313.06;;;12.80
80680;BMP280;70043;51.982;-8.514;2023-11-19T09:54:39;98319.75;;;12.81
80680;BMP280;70043;51.982;-8.514;2023-11-19T09:57:06;98327.75;;;12.84
80680;BMP280;70043;51.982;-8.514;2023-11-19T09:59:35;98320.97;;;12.78
80680;BMP280;70043;51.982;-8.514;2023-11-19T10:02:03;98325.09;;;12.79
80680;BMP280;70043;51.982;-8.514;2023-11-19T10:04:32;98335.59;;;12.78
80680;BMP280;70043;51.982;-8.514;2023-11-19T10:07:01;98332.53;;;12.81
80680;BMP280;70043;51.982;-8.514;2023-11-19T10:09:28;98331.31;;;12.83
80680;BMP280;70043;51.982;-8.514;2023-11-19T10:11:56;98348.72;;;12.86
80680;BMP280;70043;51.982;-8.514;2023-11-19T10:14:23;98343.66;;;12.91
80680;BMP280;70043;51.982;-8.514;2023-11-19T10:16:50;98355.75;;;12.96
80680;BMP280;70043;51.982;-8.514;2023-11-19T10:19:21;98361.16;;;12.99
80680;BMP280;70043;51.982;-8.514;2023-11-19T10:21:48;98368.94;;;13.04
80680;BMP280;70043;51.982;-8.514;2023-11-19T10:24:15;98369.44;;;13.06
80680;BMP280;70043;51.982;-8.514;2023-11-19T10:26:42;98379.66;;;13.01
80680;BMP280;70043;51.982;-8.514;2023-11-19T10:29:12;98387.56;;;13.00
80680;BMP280;70043;51.982;-8.514;2023-11-19T10:31:40;98386.00;;;12.99
80680;BMP280;70043;51.982;-8.514;2023-11-19T10:34:24;98385.53;;;13.02
80680;BMP280;70043;51.982;-8.514;2023-11-19T10:36:51;98382.75;;;13.03
80680;BMP280;70043;51.982;-8.514;2023-11-19T10:39:18;98395.28;;;13.05
80680;BMP280;70043;51.982;-8.514;2023-11-19T10:41:46;98401.47;;;13.04
80680;BMP280;70043;51.982;-8.514;2023-11-19T10:44:31;98398.38;;;13.07
80680;BMP280;70043;51.982;-8.514;2023-11-19T10:46:59;98407.63;;;13.08
80680;BMP280;70043;51.982;-8.514;2023-11-19T10:49:26;98414.06;;;13.11
80680;BMP280;70043;51.982;-8.514;2023-11-19T10:51:53;98409.22;;;13.14
80680;BMP280;70043;51.982;-8.514;2023-11-19T10:54:22;98403.38;;;13.19
80680;BMP280;70043;51.982;-8.514;2023-11-19T10:56:54;98421.63;;;13.22
80680;BMP280;70043;51.982;-8.514;2023-11-19T10:59:21;98422.66;;;13.26
80680;BMP280;70043;51.982;-8.514;2023-11-19T11:01:53;98427.34;;;13.29
80680;BMP280;70043;51.982;-8.514;2023-11-19T11:04:22;98420.94;;;13.32
80680;BMP280;70043;51.982;-8.514;2023-11-19T11:06:49;98429.63;;;13.31
80680;BMP280;70043;51.982;-8.514;2023-11-19T11:09:17;98428.91;;;13.30
80680;BMP280;70043;51.982;-8.514;2023-11-19T11:11:46;98432.69;;;13.28
80680;BMP280;70043;51.982;-8.514;2023-11-19T11:14:14;98431.69;;;13.29
80680;BMP280;70043;51.982;-8.514;2023-11-19T11:16:43;98439.91;;;13.31
80680;BMP280;70043;51.982;-8.514;2023-11-19T11:19:11;98454.00;;;13.33
80680;BMP280;70043;51.982;-8.514;2023-11-19T11:21:40;98450.97;;;13.36
80680;BMP280;70043;51.982;-8.514;2023-11-19T11:24:37;98457.19;;;13.40
80680;BMP280;70043;51.982;-8.514;2023-11-19T11:27:40;98461.31;;;13.46
80680;BMP280;70043;51.982;-8.514;2023-11-19T11:30:17;98458.22;;;13.44
80680;BMP280;70043;51.982;-8.514;2023-11-19T11:32:54;98473.59;;;13.44
80680;BMP280;70043;51.982;-8.514;2023-11-19T11:35:30;98479.47;;;13.40
80680;BMP280;70043;51.982;-8.514;2023-11-19T11:38:04;98475.06;;;13.35
80680;BMP280;70043;51.982;-8.514;2023-11-19T11:40:31;98483.22;;;13.32
80680;BMP280;70043;51.982;-8.514;2023-11-19T11:42:58;98464.44;;;13.27
80680;BMP280;70043;51.982;-8.514;2023-11-19T11:45:36;98470.81;;;13.24
80680;BMP280;70043;51.982;-8.514;2023-11-19T11:48:11;98476.97;;;13.23
80680;BMP280;70043;51.982;-8.514;2023-11-19T11:50:51;98489.78;;;13.23
80680;BMP280;70043;51.982;-8.514;2023-11-19T11:53:20;98477.03;;;13.28
80680;BMP280;70043;51.982;-8.514;2023-11-19T11:55:57;98480.59;;;13.27
80680;BMP280;70043;51.982;-8.514;2023-11-19T11:58:29;98466.78;;;13.28
80680;BMP280;70043;51.982;-8.514;2023-11-19T12:00:59;98477.13;;;13.38
80680;BMP280;70043;51.982;-8.514;2023-11-19T12:03:29;98488.44;;;13.42
80680;BMP280;70043;51.982;-8.514;2023-11-19T12:05:58;98502.56;;;13.45
80680;BMP280;70043;51.982;-8.514;2023-11-19T12:08:27;98504.91;;;13.46
80680;BMP280;70043;51.982;-8.514;2023-11-19T12:10:57;98514.97;;;13.53
80680;BMP280;70043;51.982;-8.514;2023-11-19T12:13:29;98524.28;;;13.59
80680;BMP280;70043;51.982;-8.514;2023-11-19T12:16:11;98525.97;;;13.75
80680;BMP280;70043;51.982;-8.514;2023-11-19T12:18:39;98534.31;;;13.87
80680;BMP280;70043;51.982;-8.514;2023-11-19T12:21:11;98529.78;;;13.99
80680;BMP280;70043;51.982;-8.514;2023-11-19T12:23:54;98524.34;;;14.23
80680;BMP280;70043;51.982;-8.514;2023-11-19T12:26:33;98536.09;;;14.19
80680;BMP280;70043;51.982;-8.514;2023-11-19T12:29:01;98526.88;;;14.18
80680;BMP280;70043;51.982;-8.514;2023-11-19T12:31:32;98533.41;;;14.03
80680;BMP280;70043;51.982;-8.514;2023-11-19T12:34:06;98527.66;;;13.91
80680;BMP280;70043;51.982;-8.514;2023-11-19T12:36:39;98537.94;;;13.91
80680;BMP280;70043;51.982;-8.514;2023-11-19T12:39:07;98543.63;;;13.98
80680;BMP280;70043;51.982;-8.514;2023-11-19T12:41:49;98535.75;;;14.05
80680;BMP280;70043;51.982;-8.514;2023-11-19T12:44:16;98551.06;;;14.00
80680;BMP280;70043;51.982;-8.514;2023-11-19T12:46:43;98543.13;;;13.96
80680;BMP280;70043;51.982;-8.514;2023-11-19T12:49:11;98546.69;;;13.95
80680;BMP280;70043;51.982;-8.514;2023-11-19T12:51:39;98550.31;;;13.99
80680;BMP280;70043;51.982;-8.514;2023-11-19T12:54:06;98559.63;;;14.05
80680;BMP280;70043;51.982;-8.514;2023-11-19T12:56:33;98564.25;;;14.08
80680;BMP280;70043;51.982;-8.514;2023-11-19T12:59:10;98567.66;;;14.14
80680;BMP280;70043;51.982;-8.514;2023-11-19T13:01:38;98561.25;;;14.17
80680;BMP280;70043;51.982;-8.514;2023-11-19T13:04:16;98564.81;;;14.16
80680;BMP280;70043;51.982;-8.514;2023-11-19T13:06:46;98550.44;;;14.15
80680;BMP280;70043;51.982;-8.514;2023-11-19T13:09:23;98564.81;;;14.16
80680;BMP280;70043;51.982;-8.514;2023-11-19T13:11:50;98571.50;;;14.17
80680;BMP280;70043;51.982;-8.514;2023-11-19T13:14:17;98582.84;;;14.21
80680;BMP280;70043;51.982;-8.514;2023-11-19T13:16:44;98580.22;;;14.16
80680;BMP280;70043;51.982;-8.514;2023-11-19T13:19:12;98583.72;;;14.04
80680;BMP280;70043;51.982;-8.514;2023-11-19T13:21:39;98567.22;;;13.95
80680;BMP280;70043;51.982;-8.514;2023-11-19T13:24:08;98591.25;;;13.89
80680;BMP280;70043;51.982;-8.514;2023-11-19T13:26:35;98586.63;;;13.86
80680;BMP280;70043;51.982;-8.514;2023-11-19T13:29:02;98601.94;;;13.81
80680;BMP280;70043;51.982;-8.514;2023-11-19T13:31:29;98601.94;;;13.81
80680;BMP280;70043;51.982;-8.514;2023-11-19T13:33:56;98602.47;;;13.83
80680;BMP280;70043;51.982;-8.514;2023-11-19T13:36:25;98602.19;;;13.80
80680;BMP280;70043;51.982;-8.514;2023-11-19T13:38:52;98620.41;;;13.78
80680;BMP280;70043;51.982;-8.514;2023-11-19T13:41:27;98608.28;;;13.74
80680;BMP280;70043;51.982;-8.514;2023-11-19T13:43:54;98635.00;;;13.78
80680;BMP280;70043;51.982;-8.514;2023-11-19T13:46:21;98645.03;;;13.79
80680;BMP280;70043;51.982;-8.514;2023-11-19T13:48:48;98624.56;;;13.84
80680;BMP280;70043;51.982;-8.514;2023-11-19T13:51:15;98628.91;;;13.84
80680;BMP280;70043;51.982;-8.514;2023-11-19T13:53:43;98623.03;;;13.88
80680;BMP280;70043;51.982;-8.514;2023-11-19T13:56:10;98621.41;;;13.77
80680;BMP280;70043;51.982;-8.514;2023-11-19T13:58:38;98616.81;;;13.79
80680;BMP280;70043;51.982;-8.514;2023-11-19T14:01:06;98613.47;;;13.79
80680;BMP280;70043;51.982;-8.514;2023-11-19T14:03:33;98618.84;;;13.77
80680;BMP280;70043;51.982;-8.514;2023-11-19T14:06:00;98616.50;;;13.76